Observation data for Guthrie on 08/14/2019      Previous  Date  Next       Current Mesonet Observations  Soil Data  Daily Summary Page  Observations in Plain Language
KPFS 140500Z 06008KT 28/18 A3004 RMK A01 T02810178  RH  057%=      5-min Rain = 0
KPFS 140505Z 06008KT 28/18 A3004 RMK A01 T02810179  RH  057%=      5-min Rain = 0
KPFS 140510Z 06008KT 28/18 A3004 RMK A01 T02800179  RH  057%=      5-min Rain = 0
KPFS 140515Z 06008KT 28/18 A3004 RMK A01 T02800179  RH  057%=      5-min Rain = 0
KPFS 140520Z 05007KT 28/18 A3004 RMK A01 T02780179  RH  058%=      5-min Rain = 0
KPFS 140525Z 05007KT 28/18 A3004 RMK A01 T02760179  RH  058%=      5-min Rain = 0
KPFS 140530Z 05006KT 28/18 A3005 RMK A01 T02750179  RH  059%=      5-min Rain = 0
KPFS 140535Z 05006KT 27/18 A3005 RMK A01 T02730179  RH  060%=      5-min Rain = 0
KPFS 140540Z 05006KT 27/18 A3005 RMK A01 T02710179  RH  060%=      5-min Rain = 0
KPFS 140545Z 04006KT 27/18 A3005 RMK A01 T02690179  RH  061%=      5-min Rain = 0
KPFS 140550Z 05006KT 27/18 A3005 RMK A01 T02680179  RH  061%=      5-min Rain = 0
KPFS 140555Z 06006KT 27/18 A3005 RMK A01 T02680179  RH  061%=      5-min Rain = 0
KPFS 140600Z 06006KT 27/18 A3005 RMK A01 T02680179  RH  061%=      5-min Rain = 0
KPFS 140605Z 05006KT 27/18 A3006 RMK A01 T02670179  RH  062%=      5-min Rain = 0
KPFS 140610Z 05006KT 27/18 A3006 RMK A01 T02660179  RH  062%=      5-min Rain = 0
KPFS 140615Z 05005KT 26/18 A3006 RMK A01 T02640179  RH  063%=      5-min Rain = 0
KPFS 140620Z 05006KT 26/18 A3006 RMK A01 T02630179  RH  063%=      5-min Rain = 0
KPFS 140625Z 05006KT 26/18 A3006 RMK A01 T02630179  RH  063%=      5-min Rain = 0
KPFS 140630Z 04006KT 26/18 A3006 RMK A01 T02620179  RH  063%=      5-min Rain = 0
KPFS 140635Z 03007KT 26/18 A3006 RMK A01 T02610179  RH  064%=      5-min Rain = 0
KPFS 140640Z 03008KT 26/18 A3007 RMK A01 T02620179  RH  064%=      5-min Rain = 0
KPFS 140645Z 03008KT 26/18 A3007 RMK A01 T02630179  RH  063%=      5-min Rain = 0
KPFS 140650Z 02008KT 26/18 A3007 RMK A01 T02640179  RH  063%=      5-min Rain = 0
KPFS 140655Z 02008KT 26/18 A3007 RMK A01 T02640178  RH  062%=      5-min Rain = 0
KPFS 140700Z 02007G12KT 26/18 A3007 RMK A01 T02640178  RH  062%=      5-min Rain = 0
KPFS 140705Z 03007KT 26/18 A3007 RMK A01 T02630178  RH  063%=      5-min Rain = 0
KPFS 140710Z 03008KT 26/18 A3007 RMK A01 T02610178  RH  063%=      5-min Rain = 0
KPFS 140715Z 02009G14KT 26/18 A3007 RMK A01 T02620179  RH  063%=      5-min Rain = 0
KPFS 140720Z 03008KT 26/18 A3007 RMK A01 T02630179  RH  063%=      5-min Rain = 0
KPFS 140725Z 02008KT 26/18 A3007 RMK A01 T02640179  RH  063%=      5-min Rain = 0
KPFS 140730Z 03008KT 26/18 A3007 RMK A01 T02640179  RH  063%=      5-min Rain = 0
KPFS 140735Z 04007KT 26/18 A3007 RMK A01 T02640179  RH  063%=      5-min Rain = 0
KPFS 140740Z 03009KT 27/18 A3007 RMK A01 T02650179  RH  063%=      5-min Rain = 0
KPFS 140745Z 02008KT 27/18 A3007 RMK A01 T02650179  RH  062%=      5-min Rain = 0
KPFS 140750Z 02008KT 27/18 A3007 RMK A01 T02650178  RH  062%=      5-min Rain = 0
KPFS 140755Z 02008G13KT 27/18 A3007 RMK A01 T02650178  RH  062%=      5-min Rain = 0
KPFS 140800Z 02009KT 26/18 A3007 RMK A01 T02640178  RH  062%=      5-min Rain = 0
KPFS 140805Z 02008KT 26/18 A3006 RMK A01 T02630178  RH  063%=      5-min Rain = 0
KPFS 140810Z 02006KT 26/18 A3006 RMK A01 T02610178  RH  063%=      5-min Rain = 0
KPFS 140815Z 02005KT 26/18 A3006 RMK A01 T02600177  RH  063%=      5-min Rain = 0
KPFS 140820Z 02008KT 26/18 A3005 RMK A01 T02600176  RH  063%=      5-min Rain = 0
KPFS 140825Z 02007KT 26/18 A3006 RMK A01 T02610175  RH  062%=      5-min Rain = 0
KPFS 140830Z 02006KT 26/18 A3005 RMK A01 T02600175  RH  062%=      5-min Rain = 0
KPFS 140835Z 02007KT 26/17 A3005 RMK A01 T02600174  RH  062%=      5-min Rain = 0
KPFS 140840Z 03009KT 26/17 A3005 RMK A01 T02590173  RH  062%=      5-min Rain = 0
KPFS 140845Z 03008KT 26/17 A3004 RMK A01 T02590172  RH  062%=      5-min Rain = 0
KPFS 140850Z 03008KT 26/17 A3005 RMK A01 T02580171  RH  062%=      5-min Rain = 0
KPFS 140855Z 03008KT 26/17 A3005 RMK A01 T02560171  RH  062%=      5-min Rain = 0
KPFS 140900Z 03006KT 26/17 A3005 RMK A01 T02550170  RH  062%=      5-min Rain = 0
KPFS 140905Z 03007KT 25/17 A3005 RMK A01 T02540170  RH  063%=      5-min Rain = 0
KPFS 140910Z 03007KT 25/17 A3005 RMK A01 T02530170  RH  063%=      5-min Rain = 0
KPFS 140915Z 03007KT 25/17 A3005 RMK A01 T02520170  RH  063%=      5-min Rain = 0
KPFS 140920Z 03007KT 25/17 A3006 RMK A01 T02530170  RH  063%=      5-min Rain = 0
KPFS 140925Z 04005KT 25/17 A3006 RMK A01 T02530170  RH  063%=      5-min Rain = 0
KPFS 140930Z 02007KT 25/17 A3006 RMK A01 T02530170  RH  063%=      5-min Rain = 0
KPFS 140935Z 01009KT 25/17 A3006 RMK A01 T02540170  RH  063%=      5-min Rain = 0
KPFS 140940Z 02009KT 26/17 A3006 RMK A01 T02550172  RH  063%=      5-min Rain = 0
KPFS 140945Z 02007KT 25/17 A3006 RMK A01 T02540173  RH  064%=      5-min Rain = 0
KPFS 140950Z 01007KT 25/17 A3006 RMK A01 T02520171  RH  064%=      5-min Rain = 0
KPFS 140955Z 01008KT 25/17 A3006 RMK A01 T02500171  RH  065%=      5-min Rain = 0
KPFS 141000Z 01009KT 25/17 A3007 RMK A01 T02490171  RH  065%=      5-min Rain = 0
KPFS 141005Z 01010KT 25/17 A3007 RMK A01 T02490171  RH  065%=      5-min Rain = 0
KPFS 141010Z 01011G16KT 25/17 A3007 RMK A01 T02480171  RH  066%=      5-min Rain = 0
KPFS 141015Z 01011G17KT 25/17 A3007 RMK A01 T02460172  RH  066%=      5-min Rain = 0
KPFS 141020Z 01011G16KT 25/17 A3007 RMK A01 T02450173  RH  067%=      5-min Rain = 0
KPFS 141025Z 01011G17KT 25/17 A3008 RMK A01 T02450174  RH  068%=      5-min Rain = 0
KPFS 141030Z 01014G20KT 24/18 A3008 RMK A01 T02430176  RH  070%=      5-min Rain = 0
KPFS 141035Z 01014G20KT 24/18 A3008 RMK A01 T02410177  RH  071%=      5-min Rain = 0
KPFS 141040Z 01015G20KT 24/18 A3009 RMK A01 T02400178  RH  072%=      5-min Rain = 0
KPFS 141045Z 01016G21KT 24/18 A3009 RMK A01 T02380178  RH  073%=      5-min Rain = 0
KPFS 141050Z 01015G20KT 24/18 A3009 RMK A01 T02370177  RH  073%=      5-min Rain = 0
KPFS 141055Z 01014G19KT 24/18 A3009 RMK A01 T02350176  RH  073%=      5-min Rain = 0
KPFS 141100Z 01013G19KT 23/17 A3009 RMK A01 T02330174  RH  073%=      5-min Rain = 0
KPFS 141105Z 01015G22KT 23/17 A3009 RMK A01 T02320173  RH  073%=      5-min Rain = 0
KPFS 141110Z 01014G21KT 23/17 A301 RMK A01 T02300170  RH  072%=      5-min Rain = 0
KPFS 141115Z 01015G21KT 23/17 A301 RMK A01 T02290168  RH  072%=      5-min Rain = 0
KPFS 141120Z 02015G20KT 23/17 A301 RMK A01 T02280167  RH  072%=      5-min Rain = 0
KPFS 141125Z 02013G19KT 23/17 A301 RMK A01 T02270166  RH  072%=      5-min Rain = 0
KPFS 141130Z 02012KT 23/17 A301 RMK A01 T02260166  RH  072%=      5-min Rain = 0
KPFS 141135Z 01011KT 23/17 A301 RMK A01 T02260166  RH  072%=      5-min Rain = 0
KPFS 141140Z 01010KT 22/17 A301 RMK A01 T02240165  RH  073%=      5-min Rain = 0
KPFS 141145Z 01009G15KT 22/16 A3009 RMK A01 T02230164  RH  073%=      5-min Rain = 0
KPFS 141150Z 01010KT 22/16 A3009 RMK A01 T02220164  RH  073%=      5-min Rain = 0
KPFS 141155Z 01011KT 22/16 A301 RMK A01 T02210163  RH  073%=      5-min Rain = 0
KPFS 141200Z 01010KT 22/16 A301 RMK A01 T02210163  RH  073%=      5-min Rain = 0
KPFS 141205Z 01009KT 22/16 A3011 RMK A01 T02200163  RH  073%=      5-min Rain = 0
KPFS 141210Z 00009G15KT 22/16 A3011 RMK A01 T02200163  RH  074%=      5-min Rain = 0
KPFS 141215Z 00011KT 22/16 A3012 RMK A01 T02200163  RH  073%=      5-min Rain = 0
KPFS 141220Z 00010KT 22/16 A3012 RMK A01 T02210163  RH  073%=      5-min Rain = 0
KPFS 141225Z 00010G15KT 22/16 A3012 RMK A01 T02210162  RH  073%=      5-min Rain = 0
KPFS 141230Z 00011KT 22/16 A3012 RMK A01 T02210162  RH  073%=      5-min Rain = 0
KPFS 141235Z 00010G15KT 22/16 A3012 RMK A01 T02200161  RH  072%=      5-min Rain = 0
KPFS 141240Z 00010KT 22/16 A3013 RMK A01 T02200161  RH  073%=      5-min Rain = 0
KPFS 141245Z 01011KT 22/16 A3013 RMK A01 T02200161  RH  073%=      5-min Rain = 0
KPFS 141250Z 00012KT 22/16 A3013 RMK A01 T02200160  RH  072%=      5-min Rain = 0
KPFS 141255Z 00011KT 22/16 A3014 RMK A01 T02200160  RH  072%=      5-min Rain = 0
KPFS 141300Z 00010G15KT 22/16 A3014 RMK A01 T02200160  RH  072%=      5-min Rain = 0
KPFS 141305Z 00011KT 22/16 A3014 RMK A01 T02200160  RH  072%=      5-min Rain = 0
KPFS 141310Z 00011KT 22/16 A3014 RMK A01 T02200160  RH  072%=      5-min Rain = 0
KPFS 141315Z 01011G16KT 22/16 A3014 RMK A01 T02230160  RH  071%=      5-min Rain = 0
KPFS 141320Z 01012KT 22/16 A3014 RMK A01 T02230160  RH  071%=      5-min Rain = 0
KPFS 141325Z 00011G16KT 23/16 A3014 RMK A01 T02250161  RH  070%=      5-min Rain = 0
KPFS 141330Z 01012G17KT 23/16 A3014 RMK A01 T02260161  RH  070%=      5-min Rain = 0
KPFS 141335Z 00011G17KT 23/16 A3015 RMK A01 T02280162  RH  069%=      5-min Rain = 0
KPFS 141340Z 00013G19KT 23/16 A3015 RMK A01 T02300162  RH  069%=      5-min Rain = 0
KPFS 141345Z 01013KT 23/16 A3015 RMK A01 T02310163  RH  069%=      5-min Rain = 0
KPFS 141350Z 01011G16KT 24/16 A3015 RMK A01 T02350164  RH  067%=      5-min Rain = 0
KPFS 141355Z 00012KT 24/16 A3015 RMK A01 T02360164  RH  067%=      5-min Rain = 0
KPFS 141400Z 36012G17KT 24/17 A3015 RMK A01 T02350165  RH  068%=      5-min Rain = 0
KPFS 141405Z 00012KT 24/17 A3015 RMK A01 T02390166  RH  067%=      5-min Rain = 0
KPFS 141410Z 36012KT 24/17 A3015 RMK A01 T02420167  RH  066%=      5-min Rain = 0
KPFS 141415Z 01012G17KT 24/17 A3015 RMK A01 T02440168  RH  066%=      5-min Rain = 0
KPFS 141420Z 01013G18KT 25/17 A3016 RMK A01 T02470169  RH  065%=      5-min Rain = 0
KPFS 141425Z 00011KT 25/17 A3015 RMK A01 T02500171  RH  065%=      5-min Rain = 0
KPFS 141430Z 00012KT 25/17 A3016 RMK A01 T02520172  RH  065%=      5-min Rain = 0
KPFS 141435Z 00012KT 26/17 A3016 RMK A01 T02550174  RH  064%=      5-min Rain = 0
KPFS 141440Z 00011KT 26/18 A3016 RMK A01 T02580177  RH  064%=      5-min Rain = 0
KPFS 141445Z 01009G14KT 26/18 A3016 RMK A01 T02610179  RH  064%=      5-min Rain = 0
KPFS 141450Z 01008G13KT 26/18 A3016 RMK A01 T02640180  RH  063%=      5-min Rain = 0
KPFS 141455Z 01008G14KT 27/18 A3016 RMK A01 T02690180  RH  062%=      5-min Rain = 0
KPFS 141500Z 03008KT 27/18 A3016 RMK A01 T02730182  RH  061%=      5-min Rain = 0
KPFS 141505Z 02008KT 28/18 A3016 RMK A01 T02760181  RH  059%=      5-min Rain = 0
KPFS 141510Z 01010KT 28/18 A3016 RMK A01 T02750181  RH  059%=      5-min Rain = 0
KPFS 141515Z 00011KT 27/18 A3016 RMK A01 T02740179  RH  059%=      5-min Rain = 0
KPFS 141520Z 01009KT 27/18 A3016 RMK A01 T02730181  RH  060%=      5-min Rain = 0
KPFS 141525Z 04008KT 28/18 A3016 RMK A01 T02770182  RH  059%=      5-min Rain = 0
KPFS 141530Z 03009KT 28/18 A3016 RMK A01 T02800183  RH  059%=      5-min Rain = 0
KPFS 141535Z 01010KT 28/18 A3016 RMK A01 T02790181  RH  058%=      5-min Rain = 0
KPFS 141540Z 01009G14KT 28/18 A3016 RMK A01 T02820182  RH  058%=      5-min Rain = 0
KPFS 141545Z 02011G16KT 28/18 A3016 RMK A01 T02820182  RH  057%=      5-min Rain = 0
KPFS 141550Z 36009KT 29/18 A3016 RMK A01 T02880183  RH  056%=      5-min Rain = 0
KPFS 141555Z 36011KT 29/18 A3016 RMK A01 T02870181  RH  056%=      5-min Rain = 0
KPFS 141600Z 36010G15KT 29/18 A3016 RMK A01 T02860182  RH  056%=      5-min Rain = 0
KPFS 141605Z 01010G15KT 29/18 A3016 RMK A01 T02900181  RH  055%=      5-min Rain = 0
KPFS 141610Z 00009KT 29/18 A3015 RMK A01 T02920181  RH  054%=      5-min Rain = 0
KPFS 141615Z 01010G15KT 29/18 A3015 RMK A01 T02920181  RH  054%=      5-min Rain = 0
KPFS 141620Z 02008KT 30/18 A3015 RMK A01 T02960182  RH  053%=      5-min Rain = 0
KPFS 141625Z 02007KT 30/18 A3015 RMK A01 T03020182  RH  051%=      5-min Rain = 0
KPFS 141630Z 02008G13KT 30/18 A3015 RMK A01 T02990180  RH  052%=      5-min Rain = 0
KPFS 141635Z 01008KT 30/18 A3014 RMK A01 T03030178  RH  050%=      5-min Rain = 0
KPFS 141640Z 36009G15KT 30/18 A3014 RMK A01 T03020175  RH  049%=      5-min Rain = 0
KPFS 141645Z 01009KT 30/18 A3014 RMK A01 T03040176  RH  049%=      5-min Rain = 0
KPFS 141650Z 02007KT 31/17 A3014 RMK A01 T03070174  RH  047%=      5-min Rain = 0
KPFS 141655Z 00009KT 31/17 A3014 RMK A01 T03090173  RH  046%=      5-min Rain = 0
KPFS 141700Z 01008G14KT 31/17 A3014 RMK A01 T03130173  RH  046%=      5-min Rain = 0
KPFS 141705Z 02006G12KT 32/17 A3013 RMK A01 T03150172  RH  045%=      5-min Rain = 0
KPFS 141710Z 03008G14KT 32/17 A3013 RMK A01 T03180173  RH  044%=      5-min Rain = 0
KPFS 141715Z 05008KT 32/17 A3013 RMK A01 T03150170  RH  044%=      5-min Rain = 0
KPFS 141720Z 05008G13KT 32/17 A3012 RMK A01 T03180172  RH  044%=      5-min Rain = 0
KPFS 141725Z 04008G14KT 32/17 A3012 RMK A01 T03220172  RH  043%=      5-min Rain = 0
KPFS 141730Z 02006G12KT 32/17 A3012 RMK A01 T03220170  RH  042%=      5-min Rain = 0
KPFS 141735Z 05007G13KT 32/17 A3012 RMK A01 T03200169  RH  043%=      5-min Rain = 0
KPFS 141740Z 04006G12KT 33/17 A3012 RMK A01 T03250166  RH  040%=      5-min Rain = 0
KPFS 141745Z 06009G15KT 33/17 A3011 RMK A01 T03320165  RH  039%=      5-min Rain = 0
KPFS 141750Z 04007G12KT 33/17 A301 RMK A01 T03330166  RH  039%=      5-min Rain = 0
KPFS 141755Z 07008G14KT 33/16 A301 RMK A01 T03320162  RH  038%=      5-min Rain = 0
KPFS 141800Z 06009G15KT 33/16 A301 RMK A01 T03310163  RH  038%=      5-min Rain = 0
KPFS 141805Z 06009G15KT 34/16 A3009 RMK A01 T03390163  RH  037%=      5-min Rain = 0
KPFS 141810Z 05007G13KT 34/16 A3009 RMK A01 T03390160  RH  036%=      5-min Rain = 0
KPFS 141815Z 07009G15KT 34/16 A3009 RMK A01 T03440164  RH  036%=      5-min Rain = 0
KPFS 141820Z 07008G14KT 34/16 A3009 RMK A01 T03370161  RH  037%=      5-min Rain = 0
KPFS 141825Z 07010G16KT 34/16 A3009 RMK A01 T03440160  RH  035%=      5-min Rain = 0
KPFS 141830Z 07008G14KT 34/16 A3008 RMK A01 T03430160  RH  035%=      5-min Rain = 0
KPFS 141835Z 09012KT 34/16 A3008 RMK A01 T03440155  RH  034%=      5-min Rain = 0
KPFS 141840Z 05012KT 35/15 A3008 RMK A01 T03450153  RH  033%=      5-min Rain = 0
KPFS 141845Z 07011G18KT 35/16 A3008 RMK A01 T03490157  RH  033%=      5-min Rain = 0
KPFS 141850Z 06012KT 35/15 A3009 RMK A01 T03450150  RH  033%=      5-min Rain = 0
KPFS 141855Z 04009G16KT 35/15 A3008 RMK A01 T03500149  RH  031%=      5-min Rain = 0
KPFS 141900Z 03010KT 35/15 A3008 RMK A01 T03510153  RH  032%=      5-min Rain = 0
KPFS 141905Z 05008G15KT 35/15 A3008 RMK A01 T03520150  RH  031%=      5-min Rain = 0
KPFS 141910Z 08012G17KT 35/15 A3007 RMK A01 T03530148  RH  031%=      5-min Rain = 0
KPFS 141915Z 07011G16KT 35/15 A3007 RMK A01 T03540148  RH  031%=      5-min Rain = 0
KPFS 141920Z 05010G18KT 35/15 A3007 RMK A01 T03520148  RH  031%=      5-min Rain = 0
KPFS 141925Z 07009G17KT 36/15 A3007 RMK A01 T03580148  RH  030%=      5-min Rain = 0
KPFS 141930Z 06013G20KT 36/15 A3007 RMK A01 T03590147  RH  030%=      5-min Rain = 0
KPFS 141935Z 06008G15KT 36/15 A3007 RMK A01 T03570147  RH  030%=      5-min Rain = 0
KPFS 141940Z 05013G18KT 36/15 A3006 RMK A01 T03590146  RH  029%=      5-min Rain = 0
KPFS 141945Z 07011G17KT 36/15 A3006 RMK A01 T03560145  RH  030%=      5-min Rain = 0
KPFS 141950Z 05012KT 36/14 A3006 RMK A01 T03600138  RH  028%=      5-min Rain = 0
KPFS 141955Z 03013G20KT 36/14 A3006 RMK A01 T03580140  RH  028%=      5-min Rain = 0
KPFS 142000Z 02011KT 36/14 A3006 RMK A01 T03590138  RH  028%=      5-min Rain = 0
KPFS 142005Z 03011G16KT 36/14 A3005 RMK A01 T03620138  RH  027%=      5-min Rain = 0
KPFS 142010Z 04009G19KT 36/13 A3005 RMK A01 T03640133  RH  026%=      5-min Rain = 0
KPFS 142015Z 04008KT 37/14 A3005 RMK A01 T03670135  RH  026%=      5-min Rain = 0
KPFS 142020Z 07009G15KT 36/14 A3004 RMK A01 T03630135  RH  027%=      5-min Rain = 0
KPFS 142025Z 04012G17KT 37/13 A3004 RMK A01 T03650129  RH  025%=      5-min Rain = 0
KPFS 142030Z 04010G18KT 36/13 A3004 RMK A01 T03640129  RH  026%=      5-min Rain = 0
KPFS 142035Z 05009G14KT 37/14 A3004 RMK A01 T03670135  RH  026%=      5-min Rain = 0
KPFS 142040Z 04010G18KT 37/14 A3003 RMK A01 T03660138  RH  027%=      5-min Rain = 0
KPFS 142045Z 05011G16KT 37/13 A3003 RMK A01 T03670133  RH  026%=      5-min Rain = 0
KPFS 142050Z 06010G18KT 36/12 A3003 RMK A01 T03640122  RH  024%=      5-min Rain = 0
KPFS 142055Z 06004KT 36/13 A3002 RMK A01 T03640127  RH  025%=      5-min Rain = 0
KPFS 142100Z 04011G20KT 37/13 A3002 RMK A01 T03660133  RH  026%=      5-min Rain = 0
KPFS 142105Z 04012KT 37/13 A3002 RMK A01 T03670128  RH  025%=      5-min Rain = 0
KPFS 142110Z 04009G14KT 37/13 A3002 RMK A01 T03660125  RH  024%=      5-min Rain = 0
KPFS 142115Z 04007KT 37/13 A3002 RMK A01 T03650129  RH  025%=      5-min Rain = 0
KPFS 142120Z 04006G12KT 37/13 A3001 RMK A01 T03660131  RH  025%=      5-min Rain = 0
KPFS 142125Z 05008KT 37/14 A3001 RMK A01 T03710137  RH  026%=      5-min Rain = 0
KPFS 142130Z 03007KT 37/13 A3001 RMK A01 T03660134  RH  026%=      5-min Rain = 0
KPFS 142135Z 05008G14KT 37/13 A30 RMK A01 T03720133  RH  025%=      5-min Rain = 0
KPFS 142140Z 05005G10KT 37/13 A30 RMK A01 T03670132  RH  026%=      5-min Rain = 0
KPFS 142145Z 04009G15KT 37/13 A30 RMK A01 T03710134  RH  025%=      5-min Rain = 0
KPFS 142150Z 09008G14KT 36/14 A30 RMK A01 T03640136  RH  027%=      5-min Rain = 0
KPFS 142155Z 07008G15KT 36/14 A30 RMK A01 T03630136  RH  027%=      5-min Rain = 0
KPFS 142200Z 06008G14KT 37/14 A30 RMK A01 T03650137  RH  027%=      5-min Rain = 0
KPFS 142205Z 06010KT 36/14 A30 RMK A01 T03640139  RH  027%=      5-min Rain = 0
KPFS 142210Z 06008G14KT 36/14 A30 RMK A01 T03630136  RH  027%=      5-min Rain = 0
KPFS 142215Z 03010G16KT 37/13 A30 RMK A01 T03650131  RH  026%=      5-min Rain = 0
KPFS 142220Z 08008G15KT 37/14 A30 RMK A01 T03670137  RH  026%=      5-min Rain = 0
KPFS 142225Z 06010G15KT 36/14 A30 RMK A01 T03640140  RH  027%=      5-min Rain = 0
KPFS 142230Z 03009G15KT 37/14 A30 RMK A01 T03650140  RH  027%=      5-min Rain = 0
KPFS 142235Z 02006G13KT 36/14 A30 RMK A01 T03620135  RH  027%=      5-min Rain = 0
KPFS 142240Z 07007G12KT 36/14 A30 RMK A01 T03640136  RH  027%=      5-min Rain = 0
KPFS 142245Z 08010G16KT 36/13 A30 RMK A01 T03620134  RH  027%=      5-min Rain = 0
KPFS 142250Z 08007G12KT 36/13 A30 RMK A01 T03580132  RH  027%=      5-min Rain = 0
KPFS 142255Z 07007G13KT 36/13 A30 RMK A01 T03600134  RH  027%=      5-min Rain = 0
KPFS 142300Z 09007G12KT 36/14 A30 RMK A01 T03640138  RH  027%=      5-min Rain = 0
KPFS 142305Z 04007KT 36/14 A30 RMK A01 T03640137  RH  027%=      5-min Rain = 0
KPFS 142310Z 04009G15KT 36/14 A30 RMK A01 T03630138  RH  027%=      5-min Rain = 0
KPFS 142315Z 05009KT 36/14 A30 RMK A01 T03610140  RH  028%=      5-min Rain = 0
KPFS 142320Z 07008G16KT 36/14 A30 RMK A01 T03620140  RH  028%=      5-min Rain = 0
KPFS 142325Z 08008KT 36/14 A30 RMK A01 T03630141  RH  028%=      5-min Rain = 0
KPFS 142330Z 07008KT 36/14 A30 RMK A01 T03620139  RH  028%=      5-min Rain = 0
KPFS 142335Z 05008KT 36/14 A30 RMK A01 T03600141  RH  028%=      5-min Rain = 0
KPFS 142340Z 07009KT 36/14 A30 RMK A01 T03560143  RH  029%=      5-min Rain = 0
KPFS 142345Z 07008KT 36/14 A30 RMK A01 T03560144  RH  030%=      5-min Rain = 0
KPFS 142350Z 06007KT 36/15 A30 RMK A01 T03550145  RH  030%=      5-min Rain = 0
KPFS 142355Z 09007KT 36/15 A30 RMK A01 T03560147  RH  030%=      5-min Rain = 0
KPFS 150000Z 07008KT 35/15 A30 RMK A01 T03540148  RH  030%=      5-min Rain = 0
KPFS 150005Z 05009G14KT 35/15 A30 RMK A01 T03490147  RH  031%=      5-min Rain = 0
KPFS 150010Z 07008KT 35/15 A30 RMK A01 T03500146  RH  031%=      5-min Rain = 0
KPFS 150015Z 07006G11KT 35/15 A30 RMK A01 T03490145  RH  031%=      5-min Rain = 0
KPFS 150020Z 08006KT 34/15 A30 RMK A01 T03430146  RH  032%=      5-min Rain = 0
KPFS 150025Z 09006KT 34/15 A30 RMK A01 T03400147  RH  033%=      5-min Rain = 0
KPFS 150030Z 09009KT 34/15 A30 RMK A01 T03410146  RH  033%=      5-min Rain = 0
KPFS 150035Z 08007KT 34/15 A30 RMK A01 T03430146  RH  032%=      5-min Rain = 0
KPFS 150040Z 08008G13KT 34/15 A30 RMK A01 T03430147  RH  032%=      5-min Rain = 0
KPFS 150045Z 09008KT 34/15 A3001 RMK A01 T03400150  RH  033%=      5-min Rain = 0
KPFS 150050Z 09008KT 34/15 A3001 RMK A01 T03360152  RH  035%=      5-min Rain = 0
KPFS 150055Z 09006KT 34/15 A3001 RMK A01 T03350153  RH  035%=      5-min Rain = 0
KPFS 150100Z 09008KT 33/15 A3002 RMK A01 T03340153  RH  035%=      5-min Rain = 0
KPFS 150105Z 10008KT 33/15 A3002 RMK A01 T03320153  RH  036%=      5-min Rain = 0
KPFS 150110Z 09006KT 33/15 A3002 RMK A01 T03300152  RH  036%=      5-min Rain = 0
KPFS 150115Z 09006KT 33/15 A3002 RMK A01 T03270151  RH  036%=      5-min Rain = 0
KPFS 150120Z 09006KT 32/15 A3002 RMK A01 T03240151  RH  037%=      5-min Rain = 0
KPFS 150125Z 09006KT 32/15 A3002 RMK A01 T03220150  RH  037%=      5-min Rain = 0
KPFS 150130Z 09006KT 32/15 A3002 RMK A01 T03200151  RH  038%=      5-min Rain = 0
KPFS 150135Z 09006KT 32/15 A3003 RMK A01 T03180152  RH  038%=      5-min Rain = 0
KPFS 150140Z 09006KT 32/15 A3003 RMK A01 T03150152  RH  039%=      5-min Rain = 0
KPFS 150145Z 09006KT 31/15 A3003 RMK A01 T03130152  RH  040%=      5-min Rain = 0
KPFS 150150Z 09006KT 31/15 A3003 RMK A01 T03120153  RH  040%=      5-min Rain = 0
KPFS 150155Z 09006KT 31/15 A3003 RMK A01 T03100153  RH  040%=      5-min Rain = 0
KPFS 150200Z 09006KT 31/15 A3004 RMK A01 T03070153  RH  041%=      5-min Rain = 0
KPFS 150205Z 09007KT 31/15 A3004 RMK A01 T03060153  RH  041%=      5-min Rain = 0
KPFS 150210Z 09007KT 31/15 A3004 RMK A01 T03060153  RH  041%=      5-min Rain = 0
KPFS 150215Z 09007KT 31/15 A3005 RMK A01 T03060153  RH  041%=      5-min Rain = 0
KPFS 150220Z 09006KT 31/15 A3005 RMK A01 T03050153  RH  042%=      5-min Rain = 0
KPFS 150225Z 09007KT 30/15 A3005 RMK A01 T03030153  RH  042%=      5-min Rain = 0
KPFS 150230Z 09007KT 30/15 A3005 RMK A01 T03030153  RH  042%=      5-min Rain = 0
KPFS 150235Z 09007KT 30/15 A3006 RMK A01 T03030153  RH  042%=      5-min Rain = 0
KPFS 150240Z 09007KT 30/15 A3006 RMK A01 T03020154  RH  043%=      5-min Rain = 0
KPFS 150245Z 10007KT 30/16 A3006 RMK A01 T03010156  RH  044%=      5-min Rain = 0
KPFS 150250Z 10007KT 30/16 A3007 RMK A01 T03000157  RH  044%=      5-min Rain = 0
KPFS 150255Z 10007KT 30/16 A3007 RMK A01 T02990158  RH  044%=      5-min Rain = 0
KPFS 150300Z 11007KT 30/16 A3007 RMK A01 T02990159  RH  045%=      5-min Rain = 0
KPFS 150305Z 10007KT 30/16 A3007 RMK A01 T02980160  RH  045%=      5-min Rain = 0
KPFS 150310Z 10007KT 30/16 A3008 RMK A01 T02970160  RH  046%=      5-min Rain = 0
KPFS 150315Z 10007KT 30/16 A3008 RMK A01 T02950160  RH  046%=      5-min Rain = 0
KPFS 150320Z 10007KT 30/16 A3008 RMK A01 T02950161  RH  046%=      5-min Rain = 0
KPFS 150325Z 10007KT 30/16 A3008 RMK A01 T02950161  RH  047%=      5-min Rain = 0
KPFS 150330Z 11007KT 29/16 A3008 RMK A01 T02940162  RH  047%=      5-min Rain = 0
KPFS 150335Z 10008KT 29/16 A3008 RMK A01 T02940162  RH  047%=      5-min Rain = 0
KPFS 150340Z 10007KT 29/16 A3008 RMK A01 T02940163  RH  047%=      5-min Rain = 0
KPFS 150345Z 10007KT 29/16 A3008 RMK A01 T02930163  RH  048%=      5-min Rain = 0
KPFS 150350Z 10007KT 29/16 A3008 RMK A01 T02910163  RH  048%=      5-min Rain = 0
KPFS 150355Z 10007KT 29/16 A3008 RMK A01 T02890164  RH  049%=      5-min Rain = 0
KPFS 150400Z 10007KT 29/16 A3009 RMK A01 T02890164  RH  049%=      5-min Rain = 0
KPFS 150405Z 10008KT 29/16 A3009 RMK A01 T02890164  RH  049%=      5-min Rain = 0
KPFS 150410Z 10008KT 29/16 A3009 RMK A01 T02900164  RH  049%=      5-min Rain = 0
KPFS 150415Z 10008KT 29/16 A3009 RMK A01 T02910164  RH  049%=      5-min Rain = 0
KPFS 150420Z 11008KT 29/16 A3009 RMK A01 T02900164  RH  049%=      5-min Rain = 0
KPFS 150425Z 11008KT 29/16 A3009 RMK A01 T02880164  RH  050%=      5-min Rain = 0
KPFS 150430Z 11008KT 29/17 A3009 RMK A01 T02860165  RH  050%=      5-min Rain = 0
KPFS 150435Z 11008KT 29/17 A3009 RMK A01 T02850165  RH  051%=      5-min Rain = 0
KPFS 150440Z 11008KT 28/17 A3009 RMK A01 T02840165  RH  051%=      5-min Rain = 0
KPFS 150445Z 11008KT 28/17 A3009 RMK A01 T02820165  RH  051%=      5-min Rain = 0
KPFS 150450Z 11008KT 28/17 A3009 RMK A01 T02810165  RH  052%=      5-min Rain = 0
KPFS 150455Z 11007KT 28/17 A3009 RMK A01 T02790166  RH  053%=      5-min Rain = 0

Page generated in 0.009 seconds.